Nekoosa, WI

8:48 PM CDT on June 01, 2015 (GMT -0500)
Town of Saratoga | | Change Station
CLOSE
Current Station
Personal Weather Station
Location: Nekoosa, WI
Elevation: 972 ft
Nearby Weather Stations

Elev 972 ft 44.31 °N, 89.87 °W | Updated 2 days ago

Clear
Clear
55 °F
Feels Like 55 °F
N
4
Wind Variable Wind from ESE
Gusts mph

Today
High -- | Low -- °F
--% Chance of Precip.
Yesterday
High -- | Low -- °F
Precip. -- in
5:18 AM 8:36 PM
Full, 100% visible
Pressure 30.22 in
Visibility 10.0 miles
Clouds Clear
Dew Point 37 °F
Humidity 50%
Rainfall in
Snow Depth Not available.
UV 0 out of 12
Pollen 7.30 out of 12
Air Quality Not available.
Flu Activity Sporadic
METAR KISW 020054Z AUTO 13005KT 10SM CLR 16/00 A3021 RMK AO2 SLP234 T01610000

More Conditions Fewer Conditions

Pressure 30.22 in
Visibility 10.0 miles
Clouds Clear
Dew Point 37 °F
Humidity 50%
Rainfall in
Snow Depth Not available.
UV 0 out of 12
Pollen 7.30 out of 12
Air Quality Not available.
Flu Activity Sporadic
METAR KISW 020054Z AUTO 13005KT 10SM CLR 16/00 A3021 RMK AO2 SLP234 T01610000

More Conditions Fewer Conditions

10-Day Weather Forecast

Almanac

Astronomy

Jun. 01, 2015 Rise Set
Actual Time
Civil Twilight
Nautical Twilight
Astronomical Twilight
Moon
Length of Visible Light
Length of Day
Tomorrow will be .
, % of the Moon is Illuminated

Today's Extremes

State Highs State Lows

Community

WunderPhotos

Upload Photos

1,825,851 photos uploaded!

WunderBlogs® & News

Nearby

Air Quality

  Air Quality AQ Index Pollutant
Not available.

Snow Depth

Station Depth Elevation

Earthquake Activity

City Distance Mag. Time & Date
Minimum magnitude displayed is 2.5.

Coastal Water Temperatures

Place Temperature

Stations

Nearby Weather Stations

Station Location Temp. Windchill Dew Point Humidity Wind Precip. Elev Updated Type